This is the latest recevied weather packets stored in our database for station/object KF0WJA. If no packets are shown the sender has not sent any weather packets the latest 10 day(s).
| Time | Temp. | Humidity | Pressure | Rain* | Wind** | Luminosity | Snow |
|---|---|---|---|---|---|---|---|
| 1787433761 | 31.67° C | 51% | 1020.6 hPa | 0 mm | - | 536 W/m² | - |
| 1787433457 | 32.22° C | 50% | 1020.7 hPa | 0 mm | - | 536 W/m² | - |
| 1787433152 | 31.67° C | 54% | 1020.8 hPa | 0 mm | - | 551 W/m² | - |
| 1787432849 | 32.22° C | 51% | 1020.7 hPa | 0 mm | - | 562 W/m² | - |
| 1787432544 | 31.67° C | 51% | 1020.8 hPa | 0 mm | - | 557 W/m² | - |
| 1787432243 | 31.67° C | 53% | 1020.7 hPa | 0 mm | - | 587 W/m² | - |
| 1787431939 | 31.11° C | 54% | 1020.9 hPa | 0 mm | - | 614 W/m² | - |
| 1787431638 | 31.67° C | 53% | 1021 hPa | 0 mm | - | 630 W/m² | - |
| 1787431334 | 31.11° C | 55% | 1021 hPa | 0 mm | - | 623 W/m² | - |
| 1787431030 | 31.11° C | 55% | 1021.3 hPa | 0 mm | - | 643 W/m² | - |
| 1787430726 | 31.11° C | 54% | 1021.4 hPa | 0 mm | - | 629 W/m² | - |
| 1787430422 | 31.11° C | 55% | 1021.3 hPa | 0 mm | - | 651 W/m² | - |
| 1787430119 | 30.56° C | 55% | 1021.3 hPa | 0 mm | - | 658 W/m² | - |
| 1787429814 | 30.56° C | 55% | 1021.4 hPa | 0 mm | - | 652 W/m² | - |
| 1787429514 | 30.56° C | 55% | 1021.4 hPa | 0 mm | - | 636 W/m² | - |
| 1787429210 | 30.56° C | 55% | 1021.5 hPa | 0 mm | - | 637 W/m² | - |
| 1787428905 | 30° C | 57% | 1021.3 hPa | 0 mm | - | 651 W/m² | - |
| 1787428606 | 30° C | 55% | 1021.1 hPa | 0 mm | - | 667 W/m² | - |
| 1787428301 | 30.56° C | 56% | 1021.1 hPa | 0 mm | - | 678 W/m² | - |
| 1787427996 | 30° C | 57% | 1021 hPa | 0 mm | - | 675 W/m² | - |
| 1787427691 | 30° C | 56% | 1021.1 hPa | 0 mm | - | 679 W/m² | - |
| 1787427387 | 29.44° C | 57% | 1021.3 hPa | 0 mm | - | 663 W/m² | - |
| 1787427083 | 29.44° C | 59% | 1021.4 hPa | 0 mm | - | 663 W/m² | - |
| 1787426779 | 30° C | 57% | 1021.4 hPa | 0 mm | - | 669 W/m² | - |
| 1787426474 | 29.44° C | 56% | 1021.4 hPa | 0 mm | - | 680 W/m² | - |
* Rain latest hour (hover to see other rain measurements)
** Current wind speed in m/s (hover to see current wind gust speed)